Rose Hill, Illinois
Current Conditions -  °F | °C
As of 9:55 PM on Friday 24 Oct 2014 (Local Time) from K1H2 Reporting Station
Broken Clouds Broken Clouds  
Wind Chill: 55°   Ceiling: 4600
Heat Index: 55°   Visibility: 10mi
Dew Point: 51°   Wind: 3mph
Humidity: 85%   Direction: 160°SSE
Pressure: 30.02"   Gusts: NA
Location:  39.1196°N, 88.1333°W
Report Text: K1H2 250255Z AUTO 16003KT 10SM BKN046 13/11 A3002 RMK AO2 T01300106
Loading
Personal Weather Stations






























Interactive Weather Map
Tropical Storm Tracking
New forecast layout! Learn more

10-Day Weather Forecast

Advertisements
Track Severe Weather on mobile